sensor_id;sensor_type;location;lat;lon;timestamp;temperature;humidity
30371;DHT22;17164;48.590;11.410;2023-07-30T00:01:24;18.80;99.90
30371;DHT22;17164;48.590;11.410;2023-07-30T00:03:50;18.80;99.90
30371;DHT22;17164;48.590;11.410;2023-07-30T00:06:15;18.80;99.90
30371;DHT22;17164;48.590;11.410;2023-07-30T00:08:41;18.80;99.90
30371;DHT22;17164;48.590;11.410;2023-07-30T00:11:07;18.70;99.90
30371;DHT22;17164;48.590;11.410;2023-07-30T00:13:32;18.70;99.90
30371;DHT22;17164;48.590;11.410;2023-07-30T00:15:58;18.60;99.90
30371;DHT22;17164;48.590;11.410;2023-07-30T00:18:23;18.60;99.90
30371;DHT22;17164;48.590;11.410;2023-07-30T00:20:49;18.60;99.90
30371;DHT22;17164;48.590;11.410;2023-07-30T00:23:14;18.50;99.90
30371;DHT22;17164;48.590;11.410;2023-07-30T00:25:40;18.50;99.90
30371;DHT22;17164;48.590;11.410;2023-07-30T00:28:06;18.40;99.90
30371;DHT22;17164;48.590;11.410;2023-07-30T00:30:31;18.40;99.90
30371;DHT22;17164;48.590;11.410;2023-07-30T00:32:57;18.40;99.90
30371;DHT22;17164;48.590;11.410;2023-07-30T00:35:22;18.40;99.90
30371;DHT22;17164;48.590;11.410;2023-07-30T00:37:48;18.40;99.90
30371;DHT22;17164;48.590;11.410;2023-07-30T00:40:14;18.30;99.90
30371;DHT22;17164;48.590;11.410;2023-07-30T00:42:39;18.30;99.90
30371;DHT22;17164;48.590;11.410;2023-07-30T00:45:05;18.30;99.90
30371;DHT22;17164;48.590;11.410;2023-07-30T00:47:31;18.30;99.90
30371;DHT22;17164;48.590;11.410;2023-07-30T00:49:58;18.30;99.90
30371;DHT22;17164;48.590;11.410;2023-07-30T00:52:25;18.30;99.90
30371;DHT22;17164;48.590;11.410;2023-07-30T00:54:52;18.20;99.90
30371;DHT22;17164;48.590;11.410;2023-07-30T00:57:19;18.20;99.90
30371;DHT22;17164;48.590;11.410;2023-07-30T00:59:46;18.20;99.90
30371;DHT22;17164;48.590;11.410;2023-07-30T01:02:13;18.20;99.90
30371;DHT22;17164;48.590;11.410;2023-07-30T01:04:39;18.20;99.90
30371;DHT22;17164;48.590;11.410;2023-07-30T01:07:06;18.10;99.90
30371;DHT22;17164;48.590;11.410;2023-07-30T01:09:32;18.10;99.90
30371;DHT22;17164;48.590;11.410;2023-07-30T01:11:59;18.10;99.90
30371;DHT22;17164;48.590;11.410;2023-07-30T01:14:25;18.10;99.90
30371;DHT22;17164;48.590;11.410;2023-07-30T01:16:52;18.10;99.90
30371;DHT22;17164;48.590;11.410;2023-07-30T01:19:18;18.10;99.90
30371;DHT22;17164;48.590;11.410;2023-07-30T01:21:44;18.10;99.90
30371;DHT22;17164;48.590;11.410;2023-07-30T01:24:09;18.10;99.90
30371;DHT22;17164;48.590;11.410;2023-07-30T01:26:51;18.00;99.90
30371;DHT22;17164;48.590;11.410;2023-07-30T01:29:23;18.00;99.90
30371;DHT22;17164;48.590;11.410;2023-07-30T01:31:56;18.00;99.90
30371;DHT22;17164;48.590;11.410;2023-07-30T01:34:24;18.00;99.90
30371;DHT22;17164;48.590;11.410;2023-07-30T01:36:53;18.00;99.90
30371;DHT22;17164;48.590;11.410;2023-07-30T01:39:20;18.00;99.90
30371;DHT22;17164;48.590;11.410;2023-07-30T01:41:46;18.00;99.90
30371;DHT22;17164;48.590;11.410;2023-07-30T01:44:11;18.00;99.90
30371;DHT22;17164;48.590;11.410;2023-07-30T01:46:37;18.00;99.90
30371;DHT22;17164;48.590;11.410;2023-07-30T01:49:02;18.00;99.90
30371;DHT22;17164;48.590;11.410;2023-07-30T01:51:28;18.00;99.90
30371;DHT22;17164;48.590;11.410;2023-07-30T01:53:54;18.00;99.90
30371;DHT22;17164;48.590;11.410;2023-07-30T01:56:20;18.00;99.90
30371;DHT22;17164;48.590;11.410;2023-07-30T01:58:45;18.00;99.90
30371;DHT22;17164;48.590;11.410;2023-07-30T02:01:11;18.00;99.90
30371;DHT22;17164;48.590;11.410;2023-07-30T02:03:36;18.00;99.90
30371;DHT22;17164;48.590;11.410;2023-07-30T02:06:02;17.90;99.90
30371;DHT22;17164;48.590;11.410;2023-07-30T02:08:28;17.80;99.90
30371;DHT22;17164;48.590;11.410;2023-07-30T02:11:00;17.70;99.90
30371;DHT22;17164;48.590;11.410;2023-07-30T02:13:25;17.60;99.90
30371;DHT22;17164;48.590;11.410;2023-07-30T02:15:51;17.50;99.90
30371;DHT22;17164;48.590;11.410;2023-07-30T02:18:17;17.40;99.90
30371;DHT22;17164;48.590;11.410;2023-07-30T02:20:43;17.30;99.90
30371;DHT22;17164;48.590;11.410;2023-07-30T02:23:08;17.30;99.90
30371;DHT22;17164;48.590;11.410;2023-07-30T02:25:34;17.30;99.90
30371;DHT22;17164;48.590;11.410;2023-07-30T02:28:01;17.20;99.90
30371;DHT22;17164;48.590;11.410;2023-07-30T02:30:27;17.20;99.90
30371;DHT22;17164;48.590;11.410;2023-07-30T02:32:53;17.20;99.90
30371;DHT22;17164;48.590;11.410;2023-07-30T02:35:19;17.20;99.90
30371;DHT22;17164;48.590;11.410;2023-07-30T02:37:44;17.20;99.90
30371;DHT22;17164;48.590;11.410;2023-07-30T02:40:10;17.20;99.90
30371;DHT22;17164;48.590;11.410;2023-07-30T02:42:36;17.20;99.90
30371;DHT22;17164;48.590;11.410;2023-07-30T02:45:03;17.30;99.90
30371;DHT22;17164;48.590;11.410;2023-07-30T02:47:28;17.30;99.90
30371;DHT22;17164;48.590;11.410;2023-07-30T02:49:54;17.30;99.90
30371;DHT22;17164;48.590;11.410;2023-07-30T02:52:19;17.30;99.90
30371;DHT22;17164;48.590;11.410;2023-07-30T02:54:45;17.30;99.90
30371;DHT22;17164;48.590;11.410;2023-07-30T02:57:11;17.30;99.90
30371;DHT22;17164;48.590;11.410;2023-07-30T02:59:37;17.30;99.90
30371;DHT22;17164;48.590;11.410;2023-07-30T03:02:03;17.20;99.90
30371;DHT22;17164;48.590;11.410;2023-07-30T03:04:32;17.20;99.90
30371;DHT22;17164;48.590;11.410;2023-07-30T03:06:58;17.20;99.90
30371;DHT22;17164;48.590;11.410;2023-07-30T03:09:24;17.20;99.90
30371;DHT22;17164;48.590;11.410;2023-07-30T03:11:50;17.20;99.90
30371;DHT22;17164;48.590;11.410;2023-07-30T03:14:15;17.10;99.90
30371;DHT22;17164;48.590;11.410;2023-07-30T03:16:41;17.10;99.90
30371;DHT22;17164;48.590;11.410;2023-07-30T03:19:07;17.00;99.90
30371;DHT22;17164;48.590;11.410;2023-07-30T03:21:32;17.00;99.90
30371;DHT22;17164;48.590;11.410;2023-07-30T03:23:58;17.00;99.90
30371;DHT22;17164;48.590;11.410;2023-07-30T03:26:24;16.90;99.90
30371;DHT22;17164;48.590;11.410;2023-07-30T03:28:49;16.90;99.90
30371;DHT22;17164;48.590;11.410;2023-07-30T03:31:15;16.90;99.90
30371;DHT22;17164;48.590;11.410;2023-07-30T03:33:40;16.80;99.90
30371;DHT22;17164;48.590;11.410;2023-07-30T03:36:10;16.80;99.90
30371;DHT22;17164;48.590;11.410;2023-07-30T03:38:36;16.80;99.90
30371;DHT22;17164;48.590;11.410;2023-07-30T03:41:01;16.70;99.90
30371;DHT22;17164;48.590;11.410;2023-07-30T03:43:27;16.70;99.90
30371;DHT22;17164;48.590;11.410;2023-07-30T03:45:53;16.70;99.90
30371;DHT22;17164;48.590;11.410;2023-07-30T03:48:18;16.60;99.90
30371;DHT22;17164;48.590;11.410;2023-07-30T03:50:44;16.60;99.90
30371;DHT22;17164;48.590;11.410;2023-07-30T03:53:09;16.60;99.90
30371;DHT22;17164;48.590;11.410;2023-07-30T03:55:35;16.60;99.90
30371;DHT22;17164;48.590;11.410;2023-07-30T03:58:01;16.60;99.90
30371;DHT22;17164;48.590;11.410;2023-07-30T04:00:27;16.50;99.90
30371;DHT22;17164;48.590;11.410;2023-07-30T04:02:53;16.50;99.90
30371;DHT22;17164;48.590;11.410;2023-07-30T04:05:19;16.40;99.90
30371;DHT22;17164;48.590;11.410;2023-07-30T04:07:45;16.40;99.90
30371;DHT22;17164;48.590;11.410;2023-07-30T04:10:10;16.40;99.90
30371;DHT22;17164;48.590;11.410;2023-07-30T04:12:36;16.40;99.90
30371;DHT22;17164;48.590;11.410;2023-07-30T04:15:02;16.30;99.90
30371;DHT22;17164;48.590;11.410;2023-07-30T04:17:27;16.30;99.90
30371;DHT22;17164;48.590;11.410;2023-07-30T04:19:53;16.30;99.90
30371;DHT22;17164;48.590;11.410;2023-07-30T04:22:18;16.30;99.90
30371;DHT22;17164;48.590;11.410;2023-07-30T04:24:44;16.30;99.90
30371;DHT22;17164;48.590;11.410;2023-07-30T04:27:10;16.30;99.90
30371;DHT22;17164;48.590;11.410;2023-07-30T04:29:35;16.30;99.90
30371;DHT22;17164;48.590;11.410;2023-07-30T04:32:01;16.30;99.90
30371;DHT22;17164;48.590;11.410;2023-07-30T04:34:26;16.30;99.90
30371;DHT22;17164;48.590;11.410;2023-07-30T04:36:52;16.30;99.90
30371;DHT22;17164;48.590;11.410;2023-07-30T04:39:18;16.30;99.90
30371;DHT22;17164;48.590;11.410;2023-07-30T04:41:43;16.30;99.90
30371;DHT22;17164;48.590;11.410;2023-07-30T04:44:09;16.30;99.90
30371;DHT22;17164;48.590;11.410;2023-07-30T04:46:34;16.30;99.90
30371;DHT22;17164;48.590;11.410;2023-07-30T04:49:02;16.30;99.90
30371;DHT22;17164;48.590;11.410;2023-07-30T04:51:29;16.30;99.90
30371;DHT22;17164;48.590;11.410;2023-07-30T04:53:55;16.30;99.90
30371;DHT22;17164;48.590;11.410;2023-07-30T04:56:20;16.40;99.90
30371;DHT22;17164;48.590;11.410;2023-07-30T04:58:46;16.40;99.90
30371;DHT22;17164;48.590;11.410;2023-07-30T05:01:12;16.40;99.90
30371;DHT22;17164;48.590;11.410;2023-07-30T05:03:37;16.50;99.90
30371;DHT22;17164;48.590;11.410;2023-07-30T05:06:03;16.50;99.90
30371;DHT22;17164;48.590;11.410;2023-07-30T05:08:28;16.60;99.90
30371;DHT22;17164;48.590;11.410;2023-07-30T05:10:54;16.60;99.90
30371;DHT22;17164;48.590;11.410;2023-07-30T05:13:20;16.70;99.90
30371;DHT22;17164;48.590;11.410;2023-07-30T05:15:45;16.70;99.90
30371;DHT22;17164;48.590;11.410;2023-07-30T05:18:11;16.80;99.90
30371;DHT22;17164;48.590;11.410;2023-07-30T05:20:36;16.80;99.90
30371;DHT22;17164;48.590;11.410;2023-07-30T05:23:02;16.90;99.90
30371;DHT22;17164;48.590;11.410;2023-07-30T05:25:28;16.90;99.90
30371;DHT22;17164;48.590;11.410;2023-07-30T05:27:53;17.10;99.90
30371;DHT22;17164;48.590;11.410;2023-07-30T05:30:19;17.20;99.90
30371;DHT22;17164;48.590;11.410;2023-07-30T05:32:45;17.30;99.90
30371;DHT22;17164;48.590;11.410;2023-07-30T05:35:10;17.40;99.90
30371;DHT22;17164;48.590;11.410;2023-07-30T05:37:36;17.50;99.90
30371;DHT22;17164;48.590;11.410;2023-07-30T05:40:02;17.60;99.90
30371;DHT22;17164;48.590;11.410;2023-07-30T05:42:28;17.70;99.90
30371;DHT22;17164;48.590;11.410;2023-07-30T05:44:54;17.70;99.90
30371;DHT22;17164;48.590;11.410;2023-07-30T05:47:19;17.80;99.90
30371;DHT22;17164;48.590;11.410;2023-07-30T05:49:45;17.80;99.90
30371;DHT22;17164;48.590;11.410;2023-07-30T05:52:10;17.90;99.90
30371;DHT22;17164;48.590;11.410;2023-07-30T05:54:36;17.90;99.90
30371;DHT22;17164;48.590;11.410;2023-07-30T05:57:02;17.90;99.90
30371;DHT22;17164;48.590;11.410;2023-07-30T05:59:27;17.90;99.90
30371;DHT22;17164;48.590;11.410;2023-07-30T06:01:55;17.90;99.90
30371;DHT22;17164;48.590;11.410;2023-07-30T06:04:21;18.00;99.90
30371;DHT22;17164;48.590;11.410;2023-07-30T06:06:46;18.00;99.90
30371;DHT22;17164;48.590;11.410;2023-07-30T06:09:12;18.00;99.90
30371;DHT22;17164;48.590;11.410;2023-07-30T06:11:38;18.00;99.90
30371;DHT22;17164;48.590;11.410;2023-07-30T06:14:03;18.00;99.90
30371;DHT22;17164;48.590;11.410;2023-07-30T06:16:29;18.00;99.90
30371;DHT22;17164;48.590;11.410;2023-07-30T06:18:54;18.00;99.90
30371;DHT22;17164;48.590;11.410;2023-07-30T06:21:20;18.10;99.90
30371;DHT22;17164;48.590;11.410;2023-07-30T06:23:46;18.10;99.90
30371;DHT22;17164;48.590;11.410;2023-07-30T06:26:11;18.20;99.90
30371;DHT22;17164;48.590;11.410;2023-07-30T06:28:37;18.10;99.90
30371;DHT22;17164;48.590;11.410;2023-07-30T06:31:02;18.20;99.90
30371;DHT22;17164;48.590;11.410;2023-07-30T06:33:28;18.10;99.90
30371;DHT22;17164;48.590;11.410;2023-07-30T06:35:54;18.20;99.90
30371;DHT22;17164;48.590;11.410;2023-07-30T06:38:19;18.30;99.90
30371;DHT22;17164;48.590;11.410;2023-07-30T06:40:45;18.40;99.90
30371;DHT22;17164;48.590;11.410;2023-07-30T06:43:11;18.50;99.90
30371;DHT22;17164;48.590;11.410;2023-07-30T06:45:36;18.60;99.90
30371;DHT22;17164;48.590;11.410;2023-07-30T06:48:02;18.60;99.90
30371;DHT22;17164;48.590;11.410;2023-07-30T06:50:27;18.70;99.90
30371;DHT22;17164;48.590;11.410;2023-07-30T06:52:53;18.80;99.90
30371;DHT22;17164;48.590;11.410;2023-07-30T06:55:18;18.90;99.90
30371;DHT22;17164;48.590;11.410;2023-07-30T06:57:44;19.10;99.90
30371;DHT22;17164;48.590;11.410;2023-07-30T07:00:10;19.20;99.90
30371;DHT22;17164;48.590;11.410;2023-07-30T07:02:36;19.30;99.90
30371;DHT22;17164;48.590;11.410;2023-07-30T07:05:02;19.40;99.90
30371;DHT22;17164;48.590;11.410;2023-07-30T07:07:27;19.50;99.90
30371;DHT22;17164;48.590;11.410;2023-07-30T07:09:53;19.50;99.90
30371;DHT22;17164;48.590;11.410;2023-07-30T07:12:19;19.50;99.90
30371;DHT22;17164;48.590;11.410;2023-07-30T07:14:44;19.60;99.90
30371;DHT22;17164;48.590;11.410;2023-07-30T07:17:10;19.60;99.90
30371;DHT22;17164;48.590;11.410;2023-07-30T07:19:35;19.70;99.90
30371;DHT22;17164;48.590;11.410;2023-07-30T07:22:04;19.80;99.90
30371;DHT22;17164;48.590;11.410;2023-07-30T07:24:29;19.80;99.90
30371;DHT22;17164;48.590;11.410;2023-07-30T07:26:56;19.80;99.90
30371;DHT22;17164;48.590;11.410;2023-07-30T07:29:22;19.90;99.90
30371;DHT22;17164;48.590;11.410;2023-07-30T07:31:47;20.00;99.90
30371;DHT22;17164;48.590;11.410;2023-07-30T07:34:13;20.00;99.90
30371;DHT22;17164;48.590;11.410;2023-07-30T07:36:39;20.00;99.90
30371;DHT22;17164;48.590;11.410;2023-07-30T07:39:05;20.00;99.90
30371;DHT22;17164;48.590;11.410;2023-07-30T07:41:31;20.00;99.90
30371;DHT22;17164;48.590;11.410;2023-07-30T07:43:57;20.00;99.90
30371;DHT22;17164;48.590;11.410;2023-07-30T07:46:23;20.00;99.90
30371;DHT22;17164;48.590;11.410;2023-07-30T07:48:49;20.10;99.90
30371;DHT22;17164;48.590;11.410;2023-07-30T07:51:14;20.10;99.90
30371;DHT22;17164;48.590;11.410;2023-07-30T07:53:40;20.20;99.90
30371;DHT22;17164;48.590;11.410;2023-07-30T07:56:05;20.20;99.90
30371;DHT22;17164;48.590;11.410;2023-07-30T07:58:31;20.20;99.90
30371;DHT22;17164;48.590;11.410;2023-07-30T08:00:58;20.30;99.90
30371;DHT22;17164;48.590;11.410;2023-07-30T08:03:24;20.30;99.90
30371;DHT22;17164;48.590;11.410;2023-07-30T08:05:52;20.40;99.90
30371;DHT22;17164;48.590;11.410;2023-07-30T08:08:18;20.40;99.90
30371;DHT22;17164;48.590;11.410;2023-07-30T08:10:43;20.50;99.90
30371;DHT22;17164;48.590;11.410;2023-07-30T08:13:11;20.50;99.90
30371;DHT22;17164;48.590;11.410;2023-07-30T08:15:37;20.60;99.90
30371;DHT22;17164;48.590;11.410;2023-07-30T08:18:03;20.70;99.90
30371;DHT22;17164;48.590;11.410;2023-07-30T08:20:28;20.80;99.90
30371;DHT22;17164;48.590;11.410;2023-07-30T08:22:54;20.80;99.90
30371;DHT22;17164;48.590;11.410;2023-07-30T08:25:20;20.90;99.90
30371;DHT22;17164;48.590;11.410;2023-07-30T08:27:46;21.00;99.90
30371;DHT22;17164;48.590;11.410;2023-07-30T08:30:12;21.10;99.90
30371;DHT22;17164;48.590;11.410;2023-07-30T08:32:38;21.20;99.90
30371;DHT22;17164;48.590;11.410;2023-07-30T08:35:04;21.20;99.90
30371;DHT22;17164;48.590;11.410;2023-07-30T08:37:30;21.20;99.90
30371;DHT22;17164;48.590;11.410;2023-07-30T08:39:55;21.20;99.90
30371;DHT22;17164;48.590;11.410;2023-07-30T08:42:22;21.20;99.90
30371;DHT22;17164;48.590;11.410;2023-07-30T08:44:47;21.20;99.90
30371;DHT22;17164;48.590;11.410;2023-07-30T08:47:13;21.20;99.90
30371;DHT22;17164;48.590;11.410;2023-07-30T08:49:39;21.20;99.90
30371;DHT22;17164;48.590;11.410;2023-07-30T08:52:08;21.10;99.90
30371;DHT22;17164;48.590;11.410;2023-07-30T08:54:34;21.10;99.90
30371;DHT22;17164;48.590;11.410;2023-07-30T08:57:02;21.20;99.90
30371;DHT22;17164;48.590;11.410;2023-07-30T08:59:31;21.40;99.90
30371;DHT22;17164;48.590;11.410;2023-07-30T09:01:57;21.60;99.90
30371;DHT22;17164;48.590;11.410;2023-07-30T09:04:23;21.90;99.90
30371;DHT22;17164;48.590;11.410;2023-07-30T09:06:49;22.20;99.90
30371;DHT22;17164;48.590;11.410;2023-07-30T09:09:15;22.50;99.90
30371;DHT22;17164;48.590;11.410;2023-07-30T09:11:41;22.70;99.90
30371;DHT22;17164;48.590;11.410;2023-07-30T09:14:07;22.80;99.90
30371;DHT22;17164;48.590;11.410;2023-07-30T09:16:33;23.00;99.90
30371;DHT22;17164;48.590;11.410;2023-07-30T09:18:59;23.20;99.90
30371;DHT22;17164;48.590;11.410;2023-07-30T09:21:32;23.20;99.90
30371;DHT22;17164;48.590;11.410;2023-07-30T09:23:58;23.20;99.90
30371;DHT22;17164;48.590;11.410;2023-07-30T09:26:43;23.00;99.90
30371;DHT22;17164;48.590;11.410;2023-07-30T09:29:10;22.90;99.90
30371;DHT22;17164;48.590;11.410;2023-07-30T09:31:52;22.90;99.90
30371;DHT22;17164;48.590;11.410;2023-07-30T09:34:23;22.80;99.90
30371;DHT22;17164;48.590;11.410;2023-07-30T09:36:53;22.70;99.90
30371;DHT22;17164;48.590;11.410;2023-07-30T09:39:24;22.60;99.90
30371;DHT22;17164;48.590;11.410;2023-07-30T09:41:51;22.40;99.90
30371;DHT22;17164;48.590;11.410;2023-07-30T09:44:18;22.30;99.90
30371;DHT22;17164;48.590;11.410;2023-07-30T09:46:46;22.20;99.90
30371;DHT22;17164;48.590;11.410;2023-07-30T09:49:12;21.90;99.90
30371;DHT22;17164;48.590;11.410;2023-07-30T09:51:38;21.70;99.90
30371;DHT22;17164;48.590;11.410;2023-07-30T09:54:06;21.50;99.90
30371;DHT22;17164;48.590;11.410;2023-07-30T09:56:33;21.40;99.90
30371;DHT22;17164;48.590;11.410;2023-07-30T09:58:59;21.50;99.90
30371;DHT22;17164;48.590;11.410;2023-07-30T10:01:26;21.50;99.90
30371;DHT22;17164;48.590;11.410;2023-07-30T10:03:56;21.50;99.90
30371;DHT22;17164;48.590;11.410;2023-07-30T10:06:23;21.50;99.90
30371;DHT22;17164;48.590;11.410;2023-07-30T10:08:51;21.50;99.90
30371;DHT22;17164;48.590;11.410;2023-07-30T10:11:19;21.70;99.90
30371;DHT22;17164;48.590;11.410;2023-07-30T10:13:46;21.90;99.90
30371;DHT22;17164;48.590;11.410;2023-07-30T10:16:12;22.30;99.90
30371;DHT22;17164;48.590;11.410;2023-07-30T10:18:42;22.70;99.90
30371;DHT22;17164;48.590;11.410;2023-07-30T10:21:09;23.10;99.90
30371;DHT22;17164;48.590;11.410;2023-07-30T10:23:36;23.50;99.90
30371;DHT22;17164;48.590;11.410;2023-07-30T10:26:10;23.80;99.90
30371;DHT22;17164;48.590;11.410;2023-07-30T10:28:36;24.00;99.90
30371;DHT22;17164;48.590;11.410;2023-07-30T10:31:08;24.20;99.90
30371;DHT22;17164;48.590;11.410;2023-07-30T10:33:53;24.00;99.90
30371;DHT22;17164;48.590;11.410;2023-07-30T10:36:49;23.10;99.90
30371;DHT22;17164;48.590;11.410;2023-07-30T10:39:28;22.20;99.90
30371;DHT22;17164;48.590;11.410;2023-07-30T10:41:56;21.30;99.90
30371;DHT22;17164;48.590;11.410;2023-07-30T10:44:27;20.50;99.90
30371;DHT22;17164;48.590;11.410;2023-07-30T10:46:55;19.80;99.90
30371;DHT22;17164;48.590;11.410;2023-07-30T10:49:21;19.30;99.90
30371;DHT22;17164;48.590;11.410;2023-07-30T10:51:46;19.00;99.90
30371;DHT22;17164;48.590;11.410;2023-07-30T10:54:12;18.80;99.90
30371;DHT22;17164;48.590;11.410;2023-07-30T10:56:38;18.70;99.90
30371;DHT22;17164;48.590;11.410;2023-07-30T10:59:06;18.60;99.90
30371;DHT22;17164;48.590;11.410;2023-07-30T11:01:39;18.60;99.90
30371;DHT22;17164;48.590;11.410;2023-07-30T11:04:12;18.60;99.90
30371;DHT22;17164;48.590;11.410;2023-07-30T11:06:38;18.80;99.90
30371;DHT22;17164;48.590;11.410;2023-07-30T11:09:04;18.90;99.90
30371;DHT22;17164;48.590;11.410;2023-07-30T11:11:30;19.10;99.90
30371;DHT22;17164;48.590;11.410;2023-07-30T11:13:57;19.30;99.90
30371;DHT22;17164;48.590;11.410;2023-07-30T11:16:24;19.40;99.90
30371;DHT22;17164;48.590;11.410;2023-07-30T11:18:50;19.50;99.90
30371;DHT22;17164;48.590;11.410;2023-07-30T11:21:17;19.60;99.90
30371;DHT22;17164;48.590;11.410;2023-07-30T11:23:45;19.60;99.90
30371;DHT22;17164;48.590;11.410;2023-07-30T11:26:15;19.70;99.90
30371;DHT22;17164;48.590;11.410;2023-07-30T11:28:41;19.70;99.90
30371;DHT22;17164;48.590;11.410;2023-07-30T11:31:12;19.80;99.90
30371;DHT22;17164;48.590;11.410;2023-07-30T11:33:43;19.80;99.90
30371;DHT22;17164;48.590;11.410;2023-07-30T11:36:17;19.90;99.90
30371;DHT22;17164;48.590;11.410;2023-07-30T11:38:44;20.10;99.90
30371;DHT22;17164;48.590;11.410;2023-07-30T11:41:11;20.30;99.90
30371;DHT22;17164;48.590;11.410;2023-07-30T11:43:41;20.50;99.90
30371;DHT22;17164;48.590;11.410;2023-07-30T11:46:17;20.60;99.90
30371;DHT22;17164;48.590;11.410;2023-07-30T11:48:46;20.70;99.90
30371;DHT22;17164;48.590;11.410;2023-07-30T11:51:38;20.70;99.90
30371;DHT22;17164;48.590;11.410;2023-07-30T11:54:04;20.80;99.90
30371;DHT22;17164;48.590;11.410;2023-07-30T11:56:31;20.80;99.90
30371;DHT22;17164;48.590;11.410;2023-07-30T11:59:07;20.80;99.90
30371;DHT22;17164;48.590;11.410;2023-07-30T12:01:34;20.80;99.90
30371;DHT22;17164;48.590;11.410;2023-07-30T12:04:03;21.00;99.90
30371;DHT22;17164;48.590;11.410;2023-07-30T12:06:45;21.10;99.90
30371;DHT22;17164;48.590;11.410;2023-07-30T12:09:19;21.30;99.90
30371;DHT22;17164;48.590;11.410;2023-07-30T12:14:18;21.80;99.90
30371;DHT22;17164;48.590;11.410;2023-07-30T12:16:44;21.90;99.90
30371;DHT22;17164;48.590;11.410;2023-07-30T12:19:10;22.10;99.90
30371;DHT22;17164;48.590;11.410;2023-07-30T12:21:36;22.20;99.90
30371;DHT22;17164;48.590;11.410;2023-07-30T12:24:02;22.30;99.90
30371;DHT22;17164;48.590;11.410;2023-07-30T12:26:28;22.30;99.90
30371;DHT22;17164;48.590;11.410;2023-07-30T12:28:54;22.30;99.90
30371;DHT22;17164;48.590;11.410;2023-07-30T12:31:20;22.10;99.90
30371;DHT22;17164;48.590;11.410;2023-07-30T12:33:45;22.10;99.90
30371;DHT22;17164;48.590;11.410;2023-07-30T12:36:11;22.00;99.90
30371;DHT22;17164;48.590;11.410;2023-07-30T12:38:37;21.90;99.90
30371;DHT22;17164;48.590;11.410;2023-07-30T12:41:02;21.70;99.90
30371;DHT22;17164;48.590;11.410;2023-07-30T12:43:28;21.50;99.90
30371;DHT22;17164;48.590;11.410;2023-07-30T12:45:53;21.30;99.90
30371;DHT22;17164;48.590;11.410;2023-07-30T12:48:19;21.00;99.90
30371;DHT22;17164;48.590;11.410;2023-07-30T12:50:45;20.70;99.90
30371;DHT22;17164;48.590;11.410;2023-07-30T12:53:11;20.60;99.90
30371;DHT22;17164;48.590;11.410;2023-07-30T12:55:36;20.40;99.90
30371;DHT22;17164;48.590;11.410;2023-07-30T12:58:03;20.30;99.90
30371;DHT22;17164;48.590;11.410;2023-07-30T13:00:29;20.10;99.90
30371;DHT22;17164;48.590;11.410;2023-07-30T13:02:54;20.00;99.90
30371;DHT22;17164;48.590;11.410;2023-07-30T13:05:22;19.90;99.90
30371;DHT22;17164;48.590;11.410;2023-07-30T13:07:48;19.90;99.90
30371;DHT22;17164;48.590;11.410;2023-07-30T13:10:14;19.90;99.90
30371;DHT22;17164;48.590;11.410;2023-07-30T13:12:40;20.00;99.90
30371;DHT22;17164;48.590;11.410;2023-07-30T13:15:06;20.10;99.90
30371;DHT22;17164;48.590;11.410;2023-07-30T13:17:32;20.20;99.90
30371;DHT22;17164;48.590;11.410;2023-07-30T13:19:58;20.20;99.90
30371;DHT22;17164;48.590;11.410;2023-07-30T13:22:24;20.30;99.90
30371;DHT22;17164;48.590;11.410;2023-07-30T13:24:50;20.40;99.90
30371;DHT22;17164;48.590;11.410;2023-07-30T13:27:17;20.50;99.90
30371;DHT22;17164;48.590;11.410;2023-07-30T13:29:43;20.80;99.90
30371;DHT22;17164;48.590;11.410;2023-07-30T13:32:08;21.10;99.90
30371;DHT22;17164;48.590;11.410;2023-07-30T13:34:34;21.50;99.90
30371;DHT22;17164;48.590;11.410;2023-07-30T13:37:00;21.90;99.90
30371;DHT22;17164;48.590;11.410;2023-07-30T13:39:25;22.20;99.90
30371;DHT22;17164;48.590;11.410;2023-07-30T13:41:51;22.50;99.90
30371;DHT22;17164;48.590;11.410;2023-07-30T13:44:17;22.80;99.90
30371;DHT22;17164;48.590;11.410;2023-07-30T13:46:42;23.00;99.90
30371;DHT22;17164;48.590;11.410;2023-07-30T13:49:08;23.20;99.90
30371;DHT22;17164;48.590;11.410;2023-07-30T13:51:34;23.40;99.90
30371;DHT22;17164;48.590;11.410;2023-07-30T13:54:00;23.50;99.90
30371;DHT22;17164;48.590;11.410;2023-07-30T13:56:29;23.60;99.90
30371;DHT22;17164;48.590;11.410;2023-07-30T13:58:55;23.70;99.90
30371;DHT22;17164;48.590;11.410;2023-07-30T14:01:22;23.80;99.90
30371;DHT22;17164;48.590;11.410;2023-07-30T14:03:48;23.90;99.90
30371;DHT22;17164;48.590;11.410;2023-07-30T14:06:14;23.90;99.90
30371;DHT22;17164;48.590;11.410;2023-07-30T14:08:39;24.00;99.90
30371;DHT22;17164;48.590;11.410;2023-07-30T14:11:05;24.10;99.90
30371;DHT22;17164;48.590;11.410;2023-07-30T14:13:30;24.10;99.90
30371;DHT22;17164;48.590;11.410;2023-07-30T14:15:56;24.10;99.90
30371;DHT22;17164;48.590;11.410;2023-07-30T14:18:23;24.10;99.90
30371;DHT22;17164;48.590;11.410;2023-07-30T14:20:49;24.10;99.90
30371;DHT22;17164;48.590;11.410;2023-07-30T14:23:14;24.00;99.90
30371;DHT22;17164;48.590;11.410;2023-07-30T14:25:40;23.90;99.90
30371;DHT22;17164;48.590;11.410;2023-07-30T14:28:06;23.90;99.90
30371;DHT22;17164;48.590;11.410;2023-07-30T14:30:31;24.00;99.90
30371;DHT22;17164;48.590;11.410;2023-07-30T14:32:57;24.10;99.90
30371;DHT22;17164;48.590;11.410;2023-07-30T14:35:24;24.20;99.90
30371;DHT22;17164;48.590;11.410;2023-07-30T14:37:50;24.30;99.90
30371;DHT22;17164;48.590;11.410;2023-07-30T14:40:16;24.40;99.90
30371;DHT22;17164;48.590;11.410;2023-07-30T14:42:41;24.50;99.90
30371;DHT22;17164;48.590;11.410;2023-07-30T14:45:07;24.60;99.90
30371;DHT22;17164;48.590;11.410;2023-07-30T14:47:33;24.50;99.90
30371;DHT22;17164;48.590;11.410;2023-07-30T14:49:59;24.50;99.90
30371;DHT22;17164;48.590;11.410;2023-07-30T14:52:25;24.40;99.90
30371;DHT22;17164;48.590;11.410;2023-07-30T14:54:51;24.20;99.90
30371;DHT22;17164;48.590;11.410;2023-07-30T14:57:17;24.00;99.90
30371;DHT22;17164;48.590;11.410;2023-07-30T14:59:42;23.90;99.90
30371;DHT22;17164;48.590;11.410;2023-07-30T15:02:08;23.80;99.90
30371;DHT22;17164;48.590;11.410;2023-07-30T15:04:34;23.70;99.90
30371;DHT22;17164;48.590;11.410;2023-07-30T15:06:59;23.70;99.90
30371;DHT22;17164;48.590;11.410;2023-07-30T15:09:25;23.80;99.90
30371;DHT22;17164;48.590;11.410;2023-07-30T15:11:51;23.90;99.90
30371;DHT22;17164;48.590;11.410;2023-07-30T15:14:16;24.00;99.90